Time;durP1;ratioP1;P1;durP2;ratioP2;P2;SDS_P1;SDS_P2;PMS_P1;PMS_P2;Temp;Humidity;BMP_temperature;BMP_pressure;BME280_temperature;BME280_humidity;BME280_pressure;Samples;Min_cycle;Max_cycle;Signal;HPM_P1;HPM_P2
2021/01/04 00:00:11;;;;;;;160.15;83.85;;;;;;;1.78;85.37;97791.75;1787134;80;21102;-74
2021/01/04 00:02:50;;;;;;;164.77;86.72;;;;;;;1.65;85.43;97794.11;1786950;80;21512;-72
2021/01/04 00:05:40;;;;;;;169.97;80.62;;;;;;;1.59;85.10;97798.20;1786717;79;21158;-73
2021/01/04 00:08:27;;;;;;;150.32;78.00;;;;;;;1.55;85.23;97796.53;1769806;80;21528;-73
2021/01/04 00:11:15;;;;;;;157.65;77.30;;;;;;;1.47;85.50;97790.69;1786654;80;21543;-72
2021/01/04 00:13:53;;;;;;;153.72;81.65;;;;;;;1.44;86.45;97783.92;1786784;80;21173;-72
2021/01/04 00:16:48;;;;;;;152.67;74.03;;;;;;;1.51;86.17;97785.17;1770085;80;21047;-73
2021/01/04 00:19:55;;;;;;;137.97;68.00;;;;;;;1.57;85.85;97790.42;1786512;80;21535;-72
2021/01/04 00:23:05;;;;;;;142.60;71.67;;;;;;;1.60;85.69;97787.29;1786649;80;21166;-72
2021/01/04 00:25:46;;;;;;;139.00;71.95;;;;;;;1.54;85.76;97789.56;1786261;80;21666;-74
2021/01/04 00:28:16;;;;;;;139.25;70.62;;;;;;;1.46;85.40;97792.55;1786477;80;21146;-72
2021/01/04 00:31:07;;;;;;;143.85;76.57;;;;;;;1.47;85.70;97793.36;1786733;80;21118;-73
2021/01/04 00:33:42;;;;;;;149.45;75.03;;;;;;;1.53;85.74;97797.77;1786566;80;21599;-72
2021/01/04 00:36:25;;;;;;;230.62;112.45;;;;;;;1.56;85.67;97788.80;1786643;80;21170;-73
2021/01/04 00:39:00;;;;;;;156.72;80.10;;;;;;;1.56;86.01;97786.13;1786598;80;21285;-72
2021/01/04 00:41:53;;;;;;;156.20;82.55;;;;;;;1.50;85.99;97788.37;1785950;80;21471;-73
2021/01/04 00:44:50;;;;;;;149.97;81.22;;;;;;;1.47;85.86;97790.17;1722155;83;21614;-73
2021/01/04 00:47:28;;;;;;;128.47;64.70;;;;;;;1.47;85.77;97786.16;1744376;82;21225;-73
2021/01/04 00:50:05;;;;;;;128.10;64.12;;;;;;;1.51;85.76;97792.66;1720629;83;21100;-73
2021/01/04 00:52:42;;;;;;;126.35;61.58;;;;;;;1.54;85.64;97795.39;1733745;82;22073;-72
2021/01/04 00:55:32;;;;;;;128.12;60.52;;;;;;;1.53;85.45;97792.43;1786521;80;21138;-73
2021/01/04 00:58:37;;;;;;;105.50;55.67;;;;;;;1.39;85.41;97797.97;1765952;80;21048;-72
2021/01/04 01:01:17;;;;;;;136.00;68.28;;;;;;;1.28;85.50;97796.56;1786667;80;21102;-72
2021/01/04 01:04:06;;;;;;;123.78;62.23;;;;;;;1.20;86.18;97800.39;1786421;80;21126;-72
2021/01/04 01:06:56;;;;;;;112.30;59.75;;;;;;;1.16;87.03;97799.72;1786789;80;24847;-74
2021/01/04 01:09:22;;;;;;;99.25;50.08;;;;;;;1.20;86.17;97800.39;1786478;80;21544;-73
2021/01/04 01:12:15;;;;;;;108.37;58.20;;;;;;;1.22;85.61;97804.16;1786626;80;21206;-73
2021/01/04 01:14:46;;;;;;;102.02;56.55;;;;;;;1.15;86.03;97794.08;1785621;80;21213;-72
2021/01/04 01:17:58;;;;;;;110.70;57.73;;;;;;;1.09;86.81;97794.45;1786543;80;21558;-73
2021/01/04 01:20:24;;;;;;;111.72;58.52;;;;;;;1.12;86.56;97794.84;1786546;80;21199;-72
2021/01/04 01:22:50;;;;;;;103.45;50.40;;;;;;;1.04;86.77;97794.33;1786448;80;21118;-73
2021/01/04 01:25:20;;;;;;;94.45;50.52;;;;;;;0.96;86.54;97792.77;1786552;80;21183;-73
2021/01/04 01:28:32;;;;;;;108.03;57.10;;;;;;;0.91;86.82;97800.63;1786528;80;21032;-73
2021/01/04 01:31:25;;;;;;;100.38;49.98;;;;;;;0.89;86.70;97796.03;1786650;80;21024;-73
2021/01/04 01:34:38;;;;;;;103.32;54.50;;;;;;;0.94;86.56;97796.69;1786033;80;21412;-72
2021/01/04 01:37:50;;;;;;;90.90;45.20;;;;;;;0.88;88.08;97802.41;1786429;80;21567;-73
2021/01/04 01:40:56;;;;;;;111.95;55.35;;;;;;;0.86;87.19;97795.16;1843056;76;22644;-72
2021/01/04 01:43:37;;;;;;;116.88;59.93;;;;;;;0.77;86.94;97797.31;1785393;80;21463;-72
2021/01/04 01:46:37;;;;;;;112.17;57.43;;;;;;;0.78;88.07;97795.45;1874310;76;22613;-71
2021/01/04 01:49:15;;;;;;;111.42;55.43;;;;;;;0.77;87.05;97798.64;1826978;78;21157;-73
2021/01/04 01:52:07;;;;;;;113.62;54.30;;;;;;;0.76;86.73;97802.31;1827327;77;21234;-73
2021/01/04 01:54:59;;;;;;;99.50;52.90;;;;;;;0.72;87.91;97790.48;1827023;78;21030;-73
2021/01/04 01:57:40;;;;;;;96.42;50.48;;;;;;;0.74;87.23;97794.25;1801119;78;21554;-72
2021/01/04 02:00:31;;;;;;;102.60;52.58;;;;;;;0.73;86.87;97786.77;1826897;78;21141;-73
2021/01/04 02:03:25;;;;;;;100.67;49.23;;;;;;;0.69;86.61;97781.59;1767184;81;21113;-73
2021/01/04 02:06:21;;;;;;;95.05;50.63;;;;;;;0.61;86.19;97787.74;1764592;81;22058;-72
2021/01/04 02:08:52;;;;;;;94.70;48.68;;;;;;;0.48;86.62;97786.83;1758671;81;21585;-73
2021/01/04 02:11:35;;;;;;;96.75;51.60;;;;;;;0.48;86.48;97782.02;1729005;81;21216;-73
2021/01/04 02:14:31;;;;;;;97.42;51.08;;;;;;;0.47;86.29;97781.72;1729201;81;21168;-72
2021/01/04 02:17:55;;;;;;;93.50;47.85;;;;;;;0.49;86.53;97783.64;1753964;81;21066;-72
2021/01/04 02:21:04;;;;;;;91.80;44.05;;;;;;;0.51;86.36;97788.23;1758727;81;21261;-72
2021/01/04 02:23:44;;;;;;;83.92;41.63;;;;;;;0.49;86.13;97791.64;1758827;81;21566;-72
2021/01/04 02:26:21;;;;;;;76.25;39.35;;;;;;;0.32;87.04;97797.24;1758721;81;21601;-73
2021/01/04 02:29:05;;;;;;;71.28;35.50;;;;;;;0.29;86.63;97795.84;1758785;81;21121;-73
2021/01/04 02:31:34;;;;;;;75.42;35.45;;;;;;;0.27;86.85;97790.73;1758818;81;21122;-73
2021/01/04 02:34:00;;;;;;;100.05;42.00;;;;;;;0.33;86.97;97798.87;1758913;81;25655;-74
2021/01/04 02:36:27;;;;;;;61.37;33.88;;;;;;;0.39;87.05;97803.33;1779589;79;21073;-74
2021/01/04 02:39:17;;;;;;;56.77;29.90;;;;;;;0.43;86.90;97796.02;1758658;81;21113;-74
2021/01/04 02:42:16;;;;;;;54.75;31.80;;;;;;;0.46;86.47;97794.23;1758746;81;21045;-73
2021/01/04 02:44:43;;;;;;;149.15;63.00;;;;;;;0.42;86.84;97791.70;1758885;81;22283;-72
2021/01/04 02:47:49;;;;;;;102.07;47.93;;;;;;;0.36;87.12;97793.13;1758752;81;22145;-72
2021/01/04 02:50:37;;;;;;;88.40;43.00;;;;;;;0.38;86.52;97784.38;1758683;81;21105;-72
2021/01/04 02:53:34;;;;;;;100.33;49.13;;;;;;;0.33;86.29;97793.02;1758906;81;21522;-72
2021/01/04 02:56:08;;;;;;;76.35;41.55;;;;;;;0.38;86.78;97791.05;1725204;81;21059;-72
2021/01/04 02:59:12;;;;;;;84.62;41.05;;;;;;;0.42;86.93;97794.37;1694036;84;21128;-73
2021/01/04 03:02:16;;;;;;;75.32;41.28;;;;;;;0.42;86.50;97793.03;1724254;83;21245;-73
2021/01/04 03:04:42;;;;;;;71.92;37.90;;;;;;;0.43;86.50;97808.02;1706255;84;21156;-72
2021/01/04 03:07:25;;;;;;;66.42;33.78;;;;;;;0.33;87.15;97801.53;1724254;82;21212;-72
2021/01/04 03:09:53;;;;;;;59.53;32.98;;;;;;;0.35;87.18;97798.16;1706327;84;21145;-73
2021/01/04 03:12:29;;;;;;;56.28;30.52;;;;;;;0.41;87.14;97809.25;1724353;83;21105;-73
2021/01/04 03:15:16;;;;;;;54.30;30.23;;;;;;;0.40;86.83;97808.44;1706145;84;21275;-73
2021/01/04 03:18:30;;;;;;;59.73;35.05;;;;;;;0.41;86.81;97806.06;1724196;83;21613;-72
2021/01/04 03:20:57;;;;;;;59.23;35.17;;;;;;;0.49;86.70;97811.64;1706218;84;21617;-73
2021/01/04 03:23:23;;;;;;;60.03;31.62;;;;;;;0.57;86.72;97811.35;1724410;82;21207;-73
2021/01/04 03:25:55;;;;;;;74.60;37.10;;;;;;;0.61;86.82;97806.41;1706137;84;21196;-73
2021/01/04 03:28:30;;;;;;;81.08;43.52;;;;;;;0.62;86.54;97804.85;1724422;82;21568;-72
2021/01/04 03:30:57;;;;;;;80.30;37.67;;;;;;;0.63;86.61;97809.14;1706165;84;21105;-73
2021/01/04 03:33:23;;;;;;;74.03;39.08;;;;;;;0.62;86.55;97812.85;1724411;83;21097;-73
2021/01/04 03:35:50;;;;;;;74.35;38.05;;;;;;;0.53;86.59;97810.17;1706155;84;21580;-73
2021/01/04 03:38:17;;;;;;;67.62;32.42;;;;;;;0.38;87.90;97810.52;1724385;82;21616;-73
2021/01/04 03:40:43;;;;;;;68.15;35.28;;;;;;;0.39;87.27;97812.66;1706174;84;22017;-73
2021/01/04 03:43:09;;;;;;;69.40;37.23;;;;;;;0.37;86.94;97819.55;1695707;83;21243;-73
2021/01/04 03:45:35;;;;;;;65.92;36.23;;;;;;;0.40;86.91;97823.09;1706098;84;21101;-73
2021/01/04 03:48:03;;;;;;;52.33;29.27;;;;;;;0.31;87.65;97826.27;1724357;83;21620;-73
2021/01/04 03:50:29;;;;;;;59.08;30.70;;;;;;;0.20;88.29;97827.28;1706122;84;21680;-73
2021/01/04 03:52:55;;;;;;;44.35;25.17;;;;;;;0.30;87.49;97824.13;1724382;83;22069;-73
2021/01/04 03:55:22;;;;;;;50.35;28.32;;;;;;;0.35;87.13;97827.48;1706240;84;21223;-73
2021/01/04 03:57:48;;;;;;;62.27;31.75;;;;;;;0.32;87.39;97830.05;1724392;83;21204;-73
2021/01/04 04:00:16;;;;;;;61.30;32.48;;;;;;;0.34;87.38;97837.81;1706110;84;21239;-73
2021/01/04 04:02:43;;;;;;;70.45;33.65;;;;;;;0.40;87.31;97837.77;1724445;83;21101;-73
2021/01/04 04:05:13;;;;;;;68.90;34.18;;;;;;;0.45;86.83;97837.13;1706251;84;21248;-73
2021/01/04 04:07:41;;;;;;;64.92;35.00;;;;;;;0.43;87.07;97829.87;1724232;82;21636;-73
2021/01/04 04:10:08;;;;;;;55.75;31.55;;;;;;;0.49;87.06;97835.11;1706182;84;21145;-73
2021/01/04 04:12:34;;;;;;;66.45;32.95;;;;;;;0.52;86.80;97836.03;1724430;83;21120;-73
2021/01/04 04:15:01;;;;;;;72.47;45.43;;;;;;;0.52;86.97;97836.55;1706315;84;21192;-73
2021/01/04 04:17:27;;;;;;;76.40;42.90;;;;;;;0.48;86.88;97834.82;1724286;83;22134;-73
2021/01/04 04:19:53;;;;;;;70.28;40.85;;;;;;;0.48;86.97;97831.34;1706069;84;21256;-73
2021/01/04 04:22:19;;;;;;;76.10;37.23;;;;;;;0.49;87.36;97833.78;1724268;83;21558;-73
2021/01/04 04:24:46;;;;;;;83.50;44.33;;;;;;;0.51;87.04;97834.89;1706113;84;21672;-73
2021/01/04 04:27:13;;;;;;;104.32;51.53;;;;;;;0.49;87.17;97831.11;1724381;83;21096;-73
2021/01/04 04:29:42;;;;;;;135.70;61.90;;;;;;;0.47;87.14;97832.38;1706160;84;21140;-73
2021/01/04 04:32:08;;;;;;;215.18;89.67;;;;;;;0.49;87.25;97825.78;1724332;82;21093;-73
2021/01/04 04:34:35;;;;;;;189.37;82.85;;;;;;;0.52;87.17;97821.36;1706152;84;21236;-73
2021/01/04 04:37:01;;;;;;;119.47;58.52;;;;;;;0.56;87.05;97825.20;1724249;83;21090;-73
2021/01/04 04:39:27;;;;;;;121.15;60.67;;;;;;;0.57;86.92;97818.02;1706161;84;21169;-73
2021/01/04 04:41:54;;;;;;;99.50;49.83;;;;;;;0.60;86.90;97820.27;1724379;83;21466;-73
2021/01/04 04:44:28;;;;;;;90.87;47.58;;;;;;;0.65;86.90;97815.59;1706063;84;21223;-73
2021/01/04 04:47:12;;;;;;;93.03;46.20;;;;;;;0.70;86.93;97818.42;1706870;83;21037;-73
2021/01/04 04:49:53;;;;;;;80.28;42.73;;;;;;;0.72;86.85;97815.81;1693481;83;21165;-72
2021/01/04 04:52:51;;;;;;;84.65;41.68;;;;;;;0.73;86.83;97814.77;1724306;83;21202;-73
2021/01/04 04:55:57;;;;;;;90.65;46.13;;;;;;;0.70;86.62;97807.75;1656374;84;21423;-73
2021/01/04 04:58:32;;;;;;;124.50;61.48;;;;;;;0.61;86.04;97816.55;1719562;83;21156;-72
2021/01/04 05:01:28;;;;;;;126.92;62.38;;;;;;;0.54;86.17;97824.61;1743131;81;21064;-72
2021/01/04 05:04:09;;;;;;;126.25;63.90;;;;;;;0.51;86.40;97831.73;1769299;81;21131;-72
2021/01/04 05:06:46;;;;;;;96.08;52.53;;;;;;;0.52;86.33;97823.22;1769248;80;21112;-73
2021/01/04 05:09:42;;;;;;;84.47;44.65;;;;;;;0.47;86.07;97817.19;1769210;81;21200;-73
2021/01/04 05:12:19;;;;;;;90.10;43.68;;;;;;;0.30;86.65;97808.65;1768489;80;21447;-73
2021/01/04 05:15:09;;;;;;;75.47;41.55;;;;;;;0.25;86.80;97810.10;1769324;81;21104;-73
2021/01/04 05:17:53;;;;;;;78.47;45.38;;;;;;;0.26;86.37;97814.95;1768357;81;21565;-72
2021/01/04 05:20:30;;;;;;;88.62;43.28;;;;;;;0.22;86.15;97813.73;1767917;80;21093;-73
2021/01/04 05:23:10;;;;;;;86.12;45.03;;;;;;;0.16;86.28;97814.08;1769207;81;21184;-73
2021/01/04 05:25:48;;;;;;;94.32;50.48;;;;;;;0.14;86.27;97810.02;1769096;80;21067;-73
2021/01/04 05:28:58;;;;;;;72.85;39.38;;;;;;;0.05;86.17;97810.80;1768968;81;21572;-73
2021/01/04 05:31:40;;;;;;;90.87;43.92;;;;;;;-0.02;86.12;97806.84;1773426;80;21047;-73
2021/01/04 05:34:17;;;;;;;83.80;44.90;;;;;;;0.02;86.42;97812.58;1787135;80;21055;-73
2021/01/04 05:37:11;;;;;;;65.67;38.75;;;;;;;0.05;86.67;97804.14;1786455;79;21464;-73
2021/01/04 05:40:05;;;;;;;58.70;33.90;;;;;;;-0.01;86.38;97799.67;1786936;80;21146;-72
2021/01/04 05:43:20;;;;;;;71.53;37.30;;;;;;;-0.05;86.57;97787.31;1780827;79;21059;-73
2021/01/04 05:46:10;;;;;;;64.97;35.40;;;;;;;-0.09;86.52;97779.44;1758414;80;21461;-73
2021/01/04 05:49:10;;;;;;;65.83;34.15;;;;;;;-0.13;86.31;97776.11;1775359;80;21031;-73
2021/01/04 05:51:43;;;;;;;89.75;49.18;;;;;;;-0.18;86.01;97786.08;1787083;80;21198;-72
2021/01/04 05:54:11;;;;;;;89.28;45.92;;;;;;;-0.32;85.71;97792.03;1787055;80;21102;-73
2021/01/04 05:56:37;;;;;;;96.75;47.85;;;;;;;-0.37;86.22;97801.69;1787013;80;21594;-73
2021/01/04 05:59:12;;;;;;;100.00;46.50;;;;;;;-0.33;86.45;97798.39;1786957;80;21583;-73
2021/01/04 06:01:42;;;;;;;108.20;55.15;;;;;;;-0.35;86.11;97794.29;1758312;80;21967;-72
2021/01/04 06:04:13;;;;;;;79.62;42.50;;;;;;;-0.39;86.60;97801.09;1787144;80;21201;-72
2021/01/04 06:06:58;;;;;;;64.17;33.28;;;;;;;-0.39;86.60;97801.09;1787076;80;21571;-72
2021/01/04 06:09:25;;;;;;;63.28;34.58;;;;;;;-0.45;86.41;97798.77;1786996;80;21040;-72
2021/01/04 06:12:04;;;;;;;66.45;36.28;;;;;;;-0.50;87.10;97797.27;1787077;80;21107;-72
2021/01/04 06:14:35;;;;;;;72.82;38.13;;;;;;;-0.47;87.01;97803.48;1787135;79;21118;-73
2021/01/04 06:17:07;;;;;;;61.00;31.40;;;;;;;-0.47;86.87;97798.17;1787024;80;21503;-72
2021/01/04 06:19:40;;;;;;;73.30;39.80;;;;;;;-0.55;86.44;97806.41;1786956;80;21156;-73
2021/01/04 06:22:13;;;;;;;72.92;35.78;;;;;;;-0.62;86.52;97801.11;1787007;80;21079;-73
2021/01/04 06:24:41;;;;;;;70.55;36.65;;;;;;;-0.61;86.85;97804.07;1786964;80;21098;-72
2021/01/04 06:27:30;;;;;;;68.07;34.33;;;;;;;-0.62;86.84;97809.09;1786966;80;21169;-72
2021/01/04 06:29:56;;;;;;;66.90;33.15;;;;;;;-0.60;86.68;97811.54;1785085;80;21209;-72
2021/01/04 06:32:29;;;;;;;67.78;35.52;;;;;;;-0.61;86.88;97817.89;1787117;80;21067;-72
2021/01/04 06:35:02;;;;;;;74.92;40.52;;;;;;;-0.60;86.70;97822.19;1787040;79;21149;-73
2021/01/04 06:37:29;;;;;;;68.67;39.45;;;;;;;-0.52;86.94;97832.59;1787107;80;21610;-72
2021/01/04 06:40:12;;;;;;;70.70;37.38;;;;;;;-0.46;87.17;97832.25;1787154;80;21472;-72
2021/01/04 06:42:41;;;;;;;68.97;37.03;;;;;;;-0.44;87.05;97837.66;1787195;80;22057;-72
2021/01/04 06:45:36;;;;;;;64.27;35.90;;;;;;;-0.48;86.83;97839.65;1786958;80;21154;-73
2021/01/04 06:48:10;;;;;;;54.90;30.62;;;;;;;-0.47;86.84;97843.42;1746632;80;21134;-72
2021/01/04 06:51:18;;;;;;;45.67;24.40;;;;;;;-0.48;86.98;97840.47;1785789;80;21479;-73
2021/01/04 06:54:36;;;;;;;45.28;25.00;;;;;;;-0.45;86.64;97839.21;1803378;79;21040;-73
2021/01/04 06:57:30;;;;;;;44.00;24.37;;;;;;;-0.47;86.54;97839.95;1814215;78;21180;-73
2021/01/04 07:00:11;;;;;;;39.38;21.77;;;;;;;-0.49;86.45;97849.48;1813391;79;21047;-72
2021/01/04 07:03:20;;;;;;;39.85;21.85;;;;;;;-0.44;87.17;97845.65;1770398;79;21098;-73
2021/01/04 07:06:08;;;;;;;;;;;;;;;-0.43;86.97;97849.94;1772485;79;21634;-72
2021/01/04 07:09:12;;;;;;;54.05;29.55;;;;;;;-0.46;87.34;97855.70;1770682;80;20509;-72
2021/01/04 07:12:03;;;;;;;68.78;31.17;;;;;;;-0.43;87.20;97852.59;1770362;79;21550;-72
2021/01/04 07:15:00;;;;;;;62.27;30.15;;;;;;;-0.30;87.14;97859.20;1770386;81;21115;-74
2021/01/04 07:18:09;;;;;;;59.98;33.00;;;;;;;-0.26;86.82;97866.75;1770284;79;21046;-72
2021/01/04 07:21:16;;;;;;;60.15;32.28;;;;;;;-0.25;87.29;97863.89;1768378;79;21035;-72
2021/01/04 07:23:54;;;;;;;56.10;31.87;;;;;;;-0.17;87.25;97864.12;1770157;80;21118;-73
2021/01/04 07:26:36;;;;;;;66.37;36.08;;;;;;;-0.12;87.33;97861.13;1770021;79;21274;-74
2021/01/04 07:29:20;;;;;;;62.45;36.08;;;;;;;-0.04;87.49;97869.38;1768253;81;21142;-72
2021/01/04 07:32:21;;;;;;;71.20;41.75;;;;;;;0.05;87.26;97871.27;1770298;79;21043;-73
2021/01/04 07:34:58;;;;;;;97.08;50.45;;;;;;;0.11;88.15;97873.08;1768893;80;21103;-72
2021/01/04 07:37:47;;;;;;;220.70;109.22;;;;;;;0.19;87.49;97866.97;1769286;79;21039;-73
2021/01/04 07:40:43;;;;;;;346.95;152.38;;;;;;;0.24;87.95;97867.11;1770468;80;21195;-72
2021/01/04 07:43:53;;;;;;;137.85;70.20;;;;;;;0.32;87.91;97869.20;1855352;77;21116;-72
2021/01/04 07:47:02;;;;;;;139.70;75.25;;;;;;;0.44;87.75;97868.30;1828950;77;21078;-72
2021/01/04 07:49:52;;;;;;;94.22;50.73;;;;;;;0.54;87.55;97874.47;1801391;79;21182;-73
2021/01/04 07:52:35;;;;;;;63.85;35.05;;;;;;;0.59;87.26;97871.94;1802025;78;21433;-73
2021/01/04 07:55:10;;;;;;;67.95;40.43;;;;;;;0.68;87.08;97866.63;1801694;79;21258;-73
2021/01/04 07:58:11;;;;;;;63.05;35.73;;;;;;;0.78;87.44;97866.95;1786712;79;21535;-73
2021/01/04 08:01:03;;;;;;;77.90;55.05;;;;;;;0.84;87.26;97866.05;1801985;78;21071;-72
2021/01/04 08:03:50;;;;;;;60.98;31.73;;;;;;;0.90;87.27;97870.22;1801243;79;21111;-73
2021/01/04 08:06:42;;;;;;;151.18;66.25;;;;;;;0.94;86.74;97873.57;1801242;78;21502;-73
2021/01/04 08:09:52;;;;;;;224.02;95.42;;;;;;;0.86;86.58;97871.19;1801646;79;21551;-72
2021/01/04 08:12:43;;;;;;;169.17;84.00;;;;;;;0.85;86.81;97869.53;1787825;79;21400;-73
2021/01/04 08:15:51;;;;;;;101.12;55.75;;;;;;;0.89;87.04;97877.41;1783441;78;21109;-73
2021/01/04 08:18:19;;;;;;;123.05;60.40;;;;;;;0.97;86.89;97876.30;1802102;79;21552;-72
2021/01/04 08:20:54;;;;;;;117.75;67.27;;;;;;;1.03;87.09;97866.09;1802171;78;21102;-72
2021/01/04 08:23:49;;;;;;;111.37;63.73;;;;;;;1.11;87.23;97861.27;1801559;79;22195;-73
2021/01/04 08:26:52;;;;;;;91.05;50.40;;;;;;;1.19;86.98;97864.65;1781624;79;21107;-72
2021/01/04 08:29:39;;;;;;;92.30;53.95;;;;;;;1.26;86.54;97860.05;1801505;79;21122;-72
2021/01/04 08:32:41;;;;;;;105.15;58.48;;;;;;;1.35;86.20;97860.86;1859834;76;22572;-72
2021/01/04 08:35:14;;;;;;;154.97;74.87;;;;;;;1.29;86.18;97869.78;1827145;78;21034;-74
2021/01/04 08:37:43;;;;;;;114.52;60.70;;;;;;;1.28;86.34;97870.83;1827159;78;21191;-72
2021/01/04 08:40:21;;;;;;;296.45;149.82;;;;;;;1.37;86.34;97872.16;1794882;77;21055;-73
2021/01/04 08:43:01;;;;;;;145.60;88.05;;;;;;;1.36;86.27;97868.34;1827004;78;21557;-73
2021/01/04 08:45:32;;;;;;;112.52;69.60;;;;;;;1.47;86.24;97863.61;1825804;77;21546;-71
2021/01/04 08:47:59;;;;;;;109.50;73.40;;;;;;;1.56;86.20;97868.11;1825628;78;21160;-73
2021/01/04 08:50:32;;;;;;;127.42;87.02;;;;;;;1.60;85.83;97869.28;1827002;77;21256;-73
2021/01/04 08:53:21;;;;;;;93.87;61.45;;;;;;;1.60;85.88;97863.41;1827019;78;21121;-73
2021/01/04 08:55:48;;;;;;;102.35;66.67;;;;;;;1.72;86.10;97866.16;1827128;77;21550;-72
2021/01/04 08:58:26;;;;;;;82.72;46.65;;;;;;;1.85;85.82;97863.28;1826906;78;21665;-72
2021/01/04 09:01:21;;;;;;;83.92;49.85;;;;;;;2.02;85.97;97871.47;1826406;77;21519;-73
2021/01/04 09:03:48;;;;;;;92.33;51.25;;;;;;;2.19;85.88;97859.59;1799448;78;21183;-72
2021/01/04 09:06:34;;;;;;;142.62;72.15;;;;;;;2.31;85.36;97858.27;1826810;77;21037;-73
2021/01/04 09:09:23;;;;;;;197.98;101.20;;;;;;;2.56;85.46;97849.51;1826996;78;21554;-73
2021/01/04 09:12:02;;;;;;;128.78;69.95;;;;;;;2.82;85.26;97857.09;1794871;78;21185;-73
2021/01/04 09:14:34;;;;;;;141.03;70.28;;;;;;;2.93;84.90;97854.63;1827030;78;21113;-72
2021/01/04 09:17:15;;;;;;;232.60;105.20;;;;;;;3.03;84.82;97844.14;1861074;76;22533;-71
2021/01/04 09:19:41;;;;;;;227.62;106.37;;;;;;;3.06;84.69;97843.13;1826280;78;21130;-73
2021/01/04 09:22:12;;;;;;;216.73;104.25;;;;;;;3.15;84.74;97846.27;1827096;77;21249;-73
2021/01/04 09:24:40;;;;;;;141.90;77.35;;;;;;;3.27;85.01;97848.41;1827021;78;21850;-73
2021/01/04 09:27:33;;;;;;;109.75;59.90;;;;;;;3.37;84.30;97847.80;1827077;77;21054;-73
2021/01/04 09:30:04;;;;;;;101.22;56.80;;;;;;;3.44;83.73;97851.16;1826375;78;21118;-72
2021/01/04 09:32:39;;;;;;;126.30;60.75;;;;;;;3.51;83.62;97845.14;1826003;77;21133;-73
2021/01/04 09:35:08;;;;;;;91.65;54.77;;;;;;;3.57;83.73;97846.84;1827051;78;21195;-73
2021/01/04 09:37:35;;;;;;;;;;;;;;;3.67;83.71;97844.87;1829736;78;21113;-73
2021/01/04 09:40:08;;;;;;;73.72;41.77;;;;;;;3.74;83.03;97846.89;1827033;78;20259;-73
2021/01/04 09:42:34;;;;;;;81.70;48.20;;;;;;;3.80;83.42;97845.13;1826992;78;21573;-73
2021/01/04 09:45:17;;;;;;;73.05;43.73;;;;;;;3.89;83.34;97845.83;1827057;78;21870;-73
2021/01/04 09:47:47;;;;;;;72.65;39.92;;;;;;;4.03;83.66;97844.20;1827133;78;21186;-71
2021/01/04 09:50:48;;;;;;;68.42;37.17;;;;;;;4.15;82.93;97848.44;1826933;77;21078;-72
2021/01/04 09:53:41;;;;;;;64.82;37.73;;;;;;;4.23;83.00;97845.35;1826265;78;21569;-72
2021/01/04 09:56:13;;;;;;;68.90;36.10;;;;;;;4.30;82.81;97837.16;1769171;81;21499;-72
2021/01/04 09:58:40;;;;;;;76.77;39.78;;;;;;;4.34;82.81;97835.59;1768794;81;21047;-72
2021/01/04 10:01:17;;;;;;;67.05;40.10;;;;;;;4.38;82.44;97835.94;1768706;81;21474;-72
2021/01/04 10:03:56;;;;;;;84.55;44.67;;;;;;;4.37;81.89;97837.81;1768812;81;21133;-72
2021/01/04 10:06:23;;;;;;;73.95;42.78;;;;;;;4.32;81.86;97832.35;1767922;81;21566;-72
2021/01/04 10:08:50;;;;;;;71.45;37.65;;;;;;;4.31;81.86;97829.39;1768764;81;21062;-72
2021/01/04 10:11:20;;;;;;;73.30;44.90;;;;;;;4.25;81.23;97829.82;1768695;81;21479;-72
2021/01/04 10:13:50;;;;;;;67.95;41.80;;;;;;;4.22;81.43;97823.61;1768735;81;22231;-73
2021/01/04 10:16:24;;;;;;;78.35;40.90;;;;;;;4.22;81.38;97818.25;1768584;80;21478;-73
2021/01/04 10:19:08;;;;;;;84.37;43.80;;;;;;;4.24;81.52;97810.77;1768755;81;21776;-72
2021/01/04 10:22:00;;;;;;;76.00;41.25;;;;;;;4.28;81.76;97807.61;1768700;81;21117;-72
2021/01/04 10:24:34;;;;;;;66.25;40.05;;;;;;;4.33;81.70;97799.63;1768753;81;21066;-72
2021/01/04 10:27:03;;;;;;;71.70;41.20;;;;;;;4.37;81.61;97806.95;1759552;81;22069;-73
2021/01/04 10:29:30;;;;;;;77.62;42.98;;;;;;;4.39;81.53;97800.00;1768032;81;21069;-73
2021/01/04 10:32:11;;;;;;;77.67;43.28;;;;;;;4.40;81.42;97794.91;1768163;81;21517;-73
2021/01/04 10:34:46;;;;;;;80.47;43.60;;;;;;;4.44;81.15;97793.35;1737089;81;21050;-72
2021/01/04 10:37:42;;;;;;;84.17;45.80;;;;;;;4.48;80.74;97801.20;1768230;81;21150;-73
2021/01/04 10:40:15;;;;;;;89.22;50.23;;;;;;;4.49;80.82;97798.80;1768067;81;21198;-72
2021/01/04 10:42:43;;;;;;;83.95;49.55;;;;;;;4.59;80.95;97800.30;1768136;81;21172;-73
2021/01/04 10:45:20;;;;;;;80.12;46.33;;;;;;;4.67;80.17;97810.61;1768235;80;21180;-72
2021/01/04 10:47:59;;;;;;;65.95;38.30;;;;;;;4.71;80.29;97802.36;1768186;81;21098;-73
2021/01/04 10:50:39;;;;;;;72.05;38.45;;;;;;;4.76;80.39;97806.44;1768206;81;21576;-72
2021/01/04 10:53:10;;;;;;;79.77;43.23;;;;;;;4.85;79.85;97814.88;1768274;81;21315;-73
2021/01/04 10:55:51;;;;;;;101.35;55.12;;;;;;;4.88;80.16;97813.59;1768121;81;21074;-73
2021/01/04 10:58:29;;;;;;;87.37;57.25;;;;;;;4.97;80.57;97812.92;1768050;81;21117;-72
2021/01/04 11:01:06;;;;;;;78.05;50.23;;;;;;;5.08;80.68;97807.14;1768299;81;28648;-72
2021/01/04 11:03:32;;;;;;;76.15;45.92;;;;;;;5.15;80.69;97795.69;1768178;81;21610;-72
2021/01/04 11:05:59;;;;;;;79.03;48.05;;;;;;;5.19;80.73;97789.27;1768176;80;21203;-72
2021/01/04 11:08:32;;;;;;;77.45;45.20;;;;;;;5.17;80.15;97786.84;1736163;81;21180;-70
2021/01/04 11:11:27;;;;;;;78.50;46.08;;;;;;;5.17;80.29;97784.69;1768121;81;21057;-71
2021/01/04 11:13:53;;;;;;;79.97;46.80;;;;;;;5.17;80.37;97778.78;1768145;81;21542;-72
2021/01/04 11:16:20;;;;;;;98.85;53.48;;;;;;;5.18;80.33;97772.88;1768041;81;21554;-72
2021/01/04 11:18:53;;;;;;;111.22;61.02;;;;;;;5.15;79.94;97774.20;1768079;81;21479;-72
2021/01/04 11:21:21;;;;;;;156.28;89.60;;;;;;;5.08;79.66;97770.88;1767642;79;21106;-73
2021/01/04 11:23:47;;;;;;;164.23;89.20;;;;;;;4.96;79.15;97776.39;1736112;81;21508;-73
2021/01/04 11:26:14;;;;;;;149.25;79.80;;;;;;;4.87;79.31;97778.38;1768106;80;21747;-73
2021/01/04 11:28:40;;;;;;;156.35;79.20;;;;;;;4.85;79.59;97771.12;1768135;81;21201;-73
2021/01/04 11:31:07;;;;;;;162.15;84.25;;;;;;;4.86;79.59;97772.73;1768142;80;21204;-73
2021/01/04 11:33:33;;;;;;;138.18;67.55;;;;;;;4.86;79.66;97778.92;1768118;81;21424;-73
2021/01/04 11:35:59;;;;;;;113.15;61.10;;;;;;;4.93;79.75;97778.21;1768075;80;21475;-73
2021/01/04 11:38:27;;;;;;;106.95;58.95;;;;;;;5.04;79.76;97771.92;1767987;81;21661;-73
2021/01/04 11:40:53;;;;;;;95.90;53.10;;;;;;;5.15;79.66;97768.83;1768166;81;21122;-73
2021/01/04 11:43:20;;;;;;;90.05;49.55;;;;;;;5.24;79.43;97768.66;1768109;81;21260;-73
2021/01/04 11:45:46;;;;;;;95.17;52.27;;;;;;;5.31;79.62;97758.53;1767971;80;21519;-73
2021/01/04 11:48:12;;;;;;;101.97;54.13;;;;;;;5.35;79.44;97758.30;1768153;81;21180;-73
2021/01/04 11:50:39;;;;;;;85.47;49.98;;;;;;;5.32;78.83;97754.78;1768031;81;21074;-73
2021/01/04 11:53:05;;;;;;;95.57;51.18;;;;;;;5.33;79.08;97752.37;1768268;81;21309;-73
2021/01/04 11:55:32;;;;;;;101.55;53.78;;;;;;;5.34;79.07;97757.21;1768010;81;21265;-73
2021/01/04 11:57:58;;;;;;;84.25;48.40;;;;;;;5.32;78.82;97756.66;1768004;81;21575;-73
2021/01/04 12:00:26;;;;;;;108.25;58.70;;;;;;;5.33;77.99;97759.09;1768073;81;21133;-73
2021/01/04 12:05:36;;;;;;;95.28;53.20;;;;;;;5.50;78.66;97759.00;1835897;77;22436;-72
2021/01/04 12:08:02;;;;;;;94.80;53.80;;;;;;;5.60;78.57;97757.75;1785118;80;21173;-72
2021/01/04 12:10:29;;;;;;;156.75;101.95;;;;;;;5.71;78.43;97760.53;1785085;79;21359;-72
2021/01/04 12:12:56;;;;;;;96.15;54.00;;;;;;;5.84;78.64;97764.17;1782634;80;21114;-72
2021/01/04 12:15:23;;;;;;;105.60;70.37;;;;;;;5.97;77.16;97761.61;1784979;80;20880;-72
2021/01/04 12:17:49;;;;;;;70.87;39.30;;;;;;;5.97;77.85;97758.92;1784124;80;21181;-72
2021/01/04 12:20:16;;;;;;;75.35;40.70;;;;;;;6.03;76.82;97752.52;1784843;80;21153;-72
2021/01/04 12:22:42;;;;;;;66.92;39.20;;;;;;;6.03;75.87;97751.17;1784975;80;21089;-71